Time;durP1;ratioP1;P1;durP2;ratioP2;P2;SDS_P1;SDS_P2;PMS_P1;PMS_P2;Temp;Humidity;BMP_temperature;BMP_pressure;BME280_temperature;BME280_humidity;BME280_pressure;Samples;Min_cycle;Max_cycle;Signal;HPM_P1;HPM_P2
2021/12/15 00:01:32;;;;;;;;;;;;;;;;;;5153311;27;916;-60
2021/12/15 00:03:57;;;;;;;;;;;;;;;;;;5152448;27;1316;-61
2021/12/15 00:06:23;;;;;;;;;;;;;;;;;;5153622;27;856;-62
2021/12/15 00:08:50;;;;;;;;;;;;;;;;;;5152635;27;967;-61
2021/12/15 00:11:16;;;;;;;;;;;;;;;;;;5153309;27;915;-61
2021/12/15 00:13:42;;;;;;;;;;;;;;;;;;5152919;27;760;-61
2021/12/15 00:16:09;;;;;;;;;;;;;;;;;;5134749;27;908;-61
2021/12/15 00:18:35;;;;;;;;;;;;;;;;;;5153126;27;1715;-61
2021/12/15 00:21:02;;;;;;;;;;;;;;;;;;5134050;27;1902;-61
2021/12/15 00:23:27;;;;;;;;;;;;;;;;;;5153237;27;1107;-61
2021/12/15 00:25:52;;;;;;;;;;;;;;;;;;5152992;27;832;-61
2021/12/15 00:28:18;;;;;;;;;;;;;;;;;;5153313;27;962;-61
2021/12/15 00:30:44;;;;;;;;;;;;;;;;;;5153417;27;872;-62
2021/12/15 00:33:09;;;;;;;;;;;;;;;;;;5153935;27;934;-61
2021/12/15 00:35:36;;;;;;;;;;;;;;;;;;5152885;27;1003;-62
2021/12/15 00:38:02;;;;;;;;;;;;;;;;;;5152455;27;1269;-61
2021/12/15 00:40:28;;;;;;;;;;;;;;;;;;5153330;27;1909;-61
2021/12/15 00:42:54;;;;;;;;;;;;;;;;;;5152818;27;856;-62
2021/12/15 00:45:20;;;;;;;;;;;;;;;;;;5153411;27;808;-62
2021/12/15 00:47:45;;;;;;;;;;;;;;;;;;5152948;27;794;-61
2021/12/15 00:50:12;;;;;;;;;;;;;;;;;;5153016;27;804;-62
2021/12/15 00:52:38;;;;;;;;;;;;;;;;;;5156071;27;919;-62
2021/12/15 00:55:06;;;;;;;;;;;;;;;;;;5156957;27;1061;-62
2021/12/15 00:57:31;;;;;;;;;;;;;;;;;;5157632;27;856;-62
2021/12/15 00:59:57;;;;;;;;;;;;;;;;;;5156416;27;1959;-62
2021/12/15 01:02:22;;;;;;;;;;;;;;;;;;5156712;27;2101;-62
2021/12/15 01:04:48;;;;;;;;;;;;;;;;;;5156305;27;847;-62
2021/12/15 01:07:13;;;;;;;;;;;;;;;;;;5121170;27;1337;-62
2021/12/15 01:09:52;;;;;;;;;;;;;;;;;;5156570;27;975;-62
2021/12/15 01:14:32;;;;;;;;;;;;;;;;;;5157299;27;894;-62
2021/12/15 01:20:30;;;;;;;;;;;;;;;;;;5140906;27;1897;-62
2021/12/15 01:22:57;;;;;;;;;;;;;;;;;;5155958;27;1010;-62
2021/12/15 01:25:33;;;;;;;;;;;;;;;;;;5139055;27;3221;-62
2021/12/15 01:27:59;;;;;;;;;;;;;;;;;;5156557;27;902;-62
2021/12/15 01:30:26;;;;;;;;;;;;;;;;;;5156814;27;868;-62
2021/12/15 01:32:51;;;;;;;;;;;;;;;;;;5156161;27;923;-62
2021/12/15 01:35:17;;;;;;;;;;;;;;;;;;5156319;27;954;-62
2021/12/15 01:37:43;;;;;;;;;;;;;;;;;;5156051;27;902;-62
2021/12/15 01:40:18;;;;;;;;;;;;;;;;;;5155532;27;1914;-62
2021/12/15 01:42:43;;;;;;;;;;;;;;;;;;5155851;27;1548;-62
2021/12/15 01:48:05;;;;;;;;;;;;;;;;;;5156006;27;677;-62
2021/12/15 01:50:30;;;;;;;;;;;;;;;;;;5156227;27;923;-62
2021/12/15 01:52:55;;;;;;;;;;;;;;;;;;5155497;27;938;-62
2021/12/15 01:55:21;;;;;;;;;;;;;;;;;;5155806;27;891;-62
2021/12/15 01:57:46;;;;;;;;;;;;;;;;;;5155756;27;918;-62
2021/12/15 02:00:12;;;;;;;;;;;;;;;;;;5156162;27;1890;-62
2021/12/15 02:02:37;;;;;;;;;;;;;;;;;;5155809;27;1010;-62
2021/12/15 02:05:03;;;;;;;;;;;;;;;;;;5155429;27;997;-62
2021/12/15 02:07:28;;;;;;;;;;;;;;;;;;5155961;27;983;-62
2021/12/15 02:12:25;;;;;;;;;;;;;;;;;;5155641;27;807;-60
2021/12/15 02:14:51;;;;;;;;;;;;;;;;;;5155341;27;825;-61
2021/12/15 02:17:16;;;;;;;;;;;;;;;;;;5156204;27;859;-61
2021/12/15 02:19:42;;;;;;;;;;;;;;;;;;5155472;27;1954;-61
2021/12/15 02:22:07;;;;;;;;;;;;;;;;;;5154780;27;777;-62
2021/12/15 02:24:35;;;;;;;;;;;;;;;;;;5155673;27;935;-61
2021/12/15 02:27:01;;;;;;;;;;;;;;;;;;5154779;27;921;-61
2021/12/15 02:29:30;;;;;;;;;;;;;;;;;;5155224;27;836;-62
2021/12/15 02:32:11;;;;;;;;;;;;;;;;;;5154780;27;820;-61
2021/12/15 02:37:22;;;;;;;;;;;;;;;;;;5155284;27;727;-61
2021/12/15 02:39:53;;;;;;;;;;;;;;;;;;5154153;27;1909;-61
2021/12/15 02:42:19;;;;;;;;;;;;;;;;;;5155318;27;812;-61
2021/12/15 02:44:46;;;;;;;;;;;;;;;;;;5155232;27;979;-62
2021/12/15 02:47:13;;;;;;;;;;;;;;;;;;5155030;27;932;-61
2021/12/15 02:49:38;;;;;;;;;;;;;;;;;;5155159;27;872;-62
2021/12/15 02:52:04;;;;;;;;;;;;;;;;;;5155076;27;979;-62
2021/12/15 02:54:29;;;;;;;;;;;;;;;;;;5155469;27;714;-61
2021/12/15 02:56:56;;;;;;;;;;;;;;;;;;5154365;27;840;-62
2021/12/15 02:59:31;;;;;;;;;;;;;;;;;;5154971;27;1906;-62
2021/12/15 03:02:05;;;;;;;;;;;;;;;;;;5155210;27;859;-62
2021/12/15 03:07:40;;;;;;;;;;;;;;;;;;5150904;27;1333;-62
2021/12/15 03:15:34;;;;;;;;;;;;;;;;;;5133398;27;689;-62
2021/12/15 03:18:02;;;;;;;;;;;;;;;;;;5115295;27;832;-62
2021/12/15 03:20:29;;;;;;;;;;;;;;;;;;5134019;27;1910;-62
2021/12/15 03:22:55;;;;;;;;;;;;;;;;;;5114885;27;899;-62
2021/12/15 03:25:20;;;;;;;;;;;;;;;;;;5114921;27;1365;-62
2021/12/15 03:33:34;;;;;;;;;;;;;;;;;;5133397;27;677;-62
2021/12/15 03:36:06;;;;;;;;;;;;;;;;;;5133283;27;912;-62
2021/12/15 03:38:33;;;;;;;;;;;;;;;;;;5133434;27;1036;-62
2021/12/15 03:40:58;;;;;;;;;;;;;;;;;;5132799;27;1926;-62
2021/12/15 03:43:23;;;;;;;;;;;;;;;;;;5132513;27;926;-62
2021/12/15 03:45:52;;;;;;;;;;;;;;;;;;5114437;27;930;-62
2021/12/15 03:48:20;;;;;;;;;;;;;;;;;;5133072;27;820;-62
2021/12/15 03:50:46;;;;;;;;;;;;;;;;;;5132597;27;848;-62
2021/12/15 03:53:13;;;;;;;;;;;;;;;;;;5131991;27;1038;-62
2021/12/15 03:55:39;;;;;;;;;;;;;;;;;;5133175;27;943;-61
2021/12/15 03:58:08;;;;;;;;;;;;;;;;;;5132235;27;906;-61
2021/12/15 04:00:34;;;;;;;;;;;;;;;;;;5133024;27;2325;-61
2021/12/15 04:02:59;;;;;;;;;;;;;;;;;;5132548;27;1042;-61
2021/12/15 04:05:25;;;;;;;;;;;;;;;;;;5132572;27;915;-62
2021/12/15 04:07:51;;;;;;;;;;;;;;;;;;5132180;27;835;-61
2021/12/15 04:10:19;;;;;;;;;;;;;;;;;;5132494;27;934;-61
2021/12/15 04:12:45;;;;;;;;;;;;;;;;;;5132939;27;1062;-61
2021/12/15 04:17:49;;;;;;;;;;;;;;;;;;5132560;27;812;-62
2021/12/15 04:20:16;;;;;;;;;;;;;;;;;;5113945;27;1902;-62
2021/12/15 04:22:41;;;;;;;;;;;;;;;;;;5132605;27;871;-61
2021/12/15 04:25:09;;;;;;;;;;;;;;;;;;5131401;27;919;-62
2021/12/15 04:27:34;;;;;;;;;;;;;;;;;;5132736;27;879;-62
2021/12/15 04:30:00;;;;;;;;;;;;;;;;;;5132121;27;939;-62
2021/12/15 04:32:25;;;;;;;;;;;;;;;;;;5132623;28;880;-62
2021/12/15 04:34:50;;;;;;;;;;;;;;;;;;5131971;28;929;-62
2021/12/15 04:37:15;;;;;;;;;;;;;;;;;;5132259;28;916;-62
2021/12/15 04:39:41;;;;;;;;;;;;;;;;;;5132156;28;1980;-62
2021/12/15 04:42:07;;;;;;;;;;;;;;;;;;5131824;28;970;-60
2021/12/15 04:44:32;;;;;;;;;;;;;;;;;;5132341;28;912;-60
2021/12/15 04:47:03;;;;;;;;;;;;;;;;;;5132039;28;852;-61
2021/12/15 04:49:30;;;;;;;;;;;;;;;;;;5132582;28;1016;-61
2021/12/15 04:51:56;;;;;;;;;;;;;;;;;;5113448;28;1511;-61
2021/12/15 04:54:21;;;;;;;;;;;;;;;;;;5132402;28;998;-61
2021/12/15 04:56:47;;;;;;;;;;;;;;;;;;5132804;28;830;-61
2021/12/15 04:59:13;;;;;;;;;;;;;;;;;;5132061;28;1952;-61
2021/12/15 05:01:38;;;;;;;;;;;;;;;;;;5132627;27;3265;-61
2021/12/15 05:04:04;;;;;;;;;;;;;;;;;;5113414;28;1034;-61
2021/12/15 05:06:29;;;;;;;;;;;;;;;;;;5132136;28;849;-60
2021/12/15 05:08:55;;;;;;;;;;;;;;;;;;5132300;28;906;-61
2021/12/15 05:11:21;;;;;;;;;;;;;;;;;;5132689;28;858;-61
2021/12/15 05:13:46;;;;;;;;;;;;;;;;;;5132364;28;1003;-60
2021/12/15 05:16:12;;;;;;;;;;;;;;;;;;5113487;28;876;-61
2021/12/15 05:18:37;;;;;;;;;;;;;;;;;;5132274;28;1293;-61
2021/12/15 05:21:05;;;;;;;;;;;;;;;;;;5131738;28;1902;-61
2021/12/15 05:23:31;;;;;;;;;;;;;;;;;;5131938;28;858;-61
2021/12/15 05:25:57;;;;;;;;;;;;;;;;;;5131669;28;891;-61
2021/12/15 05:28:23;;;;;;;;;;;;;;;;;;5131843;28;927;-61
2021/12/15 05:30:48;;;;;;;;;;;;;;;;;;5132223;28;892;-61
2021/12/15 05:33:14;;;;;;;;;;;;;;;;;;5131984;28;866;-61
2021/12/15 05:35:39;;;;;;;;;;;;;;;;;;5132293;28;919;-61
2021/12/15 05:38:05;;;;;;;;;;;;;;;;;;5133453;27;1218;-61
2021/12/15 05:40:31;;;;;;;;;;;;;;;;;;5136030;27;1957;-61
2021/12/15 05:42:56;;;;;;;;;;;;;;;;;;5135792;27;927;-61
2021/12/15 05:45:23;;;;;;;;;;;;;;;;;;5135155;27;820;-61
2021/12/15 05:47:48;;;;;;;;;;;;;;;;;;5135458;27;852;-61
2021/12/15 05:50:14;;;;;;;;;;;;;;;;;;5116457;27;813;-61
2021/12/15 05:52:40;;;;;;;;;;;;;;;;;;5135093;27;867;-60
2021/12/15 05:55:06;;;;;;;;;;;;;;;;;;5116610;27;851;-60
2021/12/15 05:57:32;;;;;;;;;;;;;;;;;;5135222;27;840;-61
2021/12/15 05:59:57;;;;;;;;;;;;;;;;;;5134838;27;1979;-61
2021/12/15 06:02:22;;;;;;;;;;;;;;;;;;5134953;27;966;-61
2021/12/15 06:04:48;;;;;;;;;;;;;;;;;;5135742;27;643;-61
2021/12/15 06:07:13;;;;;;;;;;;;;;;;;;5116414;27;1226;-61
2021/12/15 06:09:38;;;;;;;;;;;;;;;;;;5134717;27;936;-61
2021/12/15 06:12:04;;;;;;;;;;;;;;;;;;5134583;27;832;-61
2021/12/15 06:14:30;;;;;;;;;;;;;;;;;;5135324;27;848;-61
2021/12/15 06:17:07;;;;;;;;;;;;;;;;;;5134652;27;858;-61
2021/12/15 06:19:33;;;;;;;;;;;;;;;;;;5134946;27;1902;-60
2021/12/15 06:21:58;;;;;;;;;;;;;;;;;;5135196;27;939;-61
2021/12/15 06:24:23;;;;;;;;;;;;;;;;;;5135390;27;871;-61
2021/12/15 06:26:49;;;;;;;;;;;;;;;;;;5134627;27;1045;-60
2021/12/15 06:29:15;;;;;;;;;;;;;;;;;;5135007;27;816;-60
2021/12/15 06:31:40;;;;;;;;;;;;;;;;;;5135177;27;804;-60
2021/12/15 06:34:06;;;;;;;;;;;;;;;;;;5134386;27;1003;-60
2021/12/15 06:36:33;;;;;;;;;;;;;;;;;;5134614;27;864;-60
2021/12/15 06:38:58;;;;;;;;;;;;;;;;;;5134202;27;1973;-60
2021/12/15 06:41:24;;;;;;;;;;;;;;;;;;5134749;27;824;-60
2021/12/15 06:43:54;;;;;;;;;;;;;;;;;;5134284;27;821;-61
2021/12/15 06:59:52;;;;;;;;;;;;;;;;;;5155155;27;1973;-61
2021/12/15 07:02:18;;;;;;;;;;;;;;;;;;5154783;27;877;-61
2021/12/15 07:04:43;;;;;;;;;;;;;;;;;;5136706;27;836;-60
2021/12/15 07:07:09;;;;;;;;;;;;;;;;;;5154412;27;875;-61
2021/12/15 07:09:34;;;;;;;;;;;;;;;;;;5154872;27;919;-61
2021/12/15 07:12:00;;;;;;;;;;;;;;;;;;5154800;27;883;-61
2021/12/15 07:14:25;;;;;;;;;;;;;;;;;;5154709;27;999;-61
2021/12/15 07:16:52;;;;;;;;;;;;;;;;;;5154155;27;914;-61
2021/12/15 07:19:44;;;;;;;;;;;;;;;;;;5154739;27;1901;-61
2021/12/15 07:22:27;;;;;;;;;;;;;;;;;;5137534;27;1849;-61
2021/12/15 07:24:53;;;;;;;;;;;;;;;;;;5154439;27;844;-61
2021/12/15 07:27:18;;;;;;;;;;;;;;;;;;5154251;27;863;-60
2021/12/15 07:29:43;;;;;;;;;;;;;;;;;;5154270;27;887;-61
2021/12/15 07:32:09;;;;;;;;;;;;;;;;;;5153830;27;804;-61
2021/12/15 07:34:34;;;;;;;;;;;;;;;;;;5154392;27;994;-61
2021/12/15 07:36:59;;;;;;;;;;;;;;;;;;5153605;27;1049;-61
2021/12/15 07:39:25;;;;;;;;;;;;;;;;;;5153589;27;1905;-61
2021/12/15 07:41:53;;;;;;;;;;;;;;;;;;5153586;27;983;-62
2021/12/15 07:44:20;;;;;;;;;;;;;;;;;;5153437;27;804;-60
2021/12/15 07:46:47;;;;;;;;;;;;;;;;;;5153733;27;1068;-60
2021/12/15 07:49:13;;;;;;;;;;;;;;;;;;5153155;27;1010;-60
2021/12/15 07:51:41;;;;;;;;;;;;;;;;;;5153278;27;769;-60
2021/12/15 07:54:06;;;;;;;;;;;;;;;;;;5153888;27;845;-60
2021/12/15 07:56:31;;;;;;;;;;;;;;;;;;5153073;27;943;-61
2021/12/15 07:58:57;;;;;;;;;;;;;;;;;;5153479;27;982;-60
2021/12/15 08:01:24;;;;;;;;;;;;;;;;;;5152733;27;1902;-60
2021/12/15 08:03:51;;;;;;;;;;;;;;;;;;5153381;27;847;-60
2021/12/15 08:06:17;;;;;;;;;;;;;;;;;;5153425;27;809;-60
2021/12/15 08:08:42;;;;;;;;;;;;;;;;;;5153560;27;1167;-60
2021/12/15 08:11:08;;;;;;;;;;;;;;;;;;5153190;27;1061;-60
2021/12/15 08:13:34;;;;;;;;;;;;;;;;;;5134602;27;849;-61
2021/12/15 08:15:59;;;;;;;;;;;;;;;;;;5153056;27;982;-61
2021/12/15 08:18:27;;;;;;;;;;;;;;;;;;5152985;27;860;-61
2021/12/15 08:20:52;;;;;;;;;;;;;;;;;;5153268;27;1910;-61
2021/12/15 08:23:18;;;;;;;;;;;;;;;;;;5152770;27;947;-61
2021/12/15 08:25:44;;;;;;;;;;;;;;;;;;5117446;27;1438;-61
2021/12/15 08:28:10;;;;;;;;;;;;;;;;;;5153048;27;898;-61
2021/12/15 08:30:37;;;;;;;;;;;;;;;;;;5133894;27;860;-61
2021/12/15 08:33:04;;;;;;;;;;;;;;;;;;5152194;27;894;-60
2021/12/15 08:35:34;;;;;;;;;;;;;;;;;;5152599;27;1010;-61
2021/12/15 08:38:00;;;;;;;;;;;;;;;;;;5134383;27;3209;-61
2021/12/15 08:40:26;;;;;;;;;;;;;;;;;;5132032;28;1979;-61
2021/12/15 08:42:52;;;;;;;;;;;;;;;;;;5132069;28;1558;-61
2021/12/15 08:45:18;;;;;;;;;;;;;;;;;;5132042;28;917;-61
2021/12/15 08:47:43;;;;;;;;;;;;;;;;;;5114422;28;916;-62
2021/12/15 08:50:11;;;;;;;;;;;;;;;;;;5113518;28;824;-61
2021/12/15 08:52:36;;;;;;;;;;;;;;;;;;5132246;28;1065;-61
2021/12/15 08:55:02;;;;;;;;;;;;;;;;;;5113719;28;927;-61
2021/12/15 08:57:28;;;;;;;;;;;;;;;;;;5131482;28;1533;-61
2021/12/15 08:59:53;;;;;;;;;;;;;;;;;;5131673;28;1910;-61
2021/12/15 09:02:18;;;;;;;;;;;;;;;;;;5132158;28;765;-61
2021/12/15 09:04:44;;;;;;;;;;;;;;;;;;5132242;28;946;-62
2021/12/15 09:07:09;;;;;;;;;;;;;;;;;;5132091;28;903;-62
2021/12/15 09:09:34;;;;;;;;;;;;;;;;;;5131880;28;821;-61
2021/12/15 09:12:00;;;;;;;;;;;;;;;;;;5132228;27;1081;-61
2021/12/15 09:14:26;;;;;;;;;;;;;;;;;;5135509;27;912;-61
2021/12/15 09:16:52;;;;;;;;;;;;;;;;;;5135322;27;973;-61
2021/12/15 09:19:17;;;;;;;;;;;;;;;;;;5135307;27;1971;-62
2021/12/15 09:21:44;;;;;;;;;;;;;;;;;;5135518;27;875;-61
2021/12/15 09:24:11;;;;;;;;;;;;;;;;;;5135302;27;911;-59
2021/12/15 09:26:36;;;;;;;;;;;;;;;;;;5135301;27;844;-60
2021/12/15 09:29:02;;;;;;;;;;;;;;;;;;5135909;27;891;-60
2021/12/15 09:31:27;;;;;;;;;;;;;;;;;;5135670;27;824;-60
2021/12/15 09:33:54;;;;;;;;;;;;;;;;;;5135783;27;864;-60
2021/12/15 09:36:20;;;;;;;;;;;;;;;;;;5135228;27;888;-60
2021/12/15 09:38:47;;;;;;;;;;;;;;;;;;5135366;27;1044;-60
2021/12/15 09:41:14;;;;;;;;;;;;;;;;;;5151623;27;3230;-61
2021/12/15 09:43:41;;;;;;;;;;;;;;;;;;5156090;27;841;-60
2021/12/15 09:46:28;;;;;;;;;;;;;;;;;;5137656;27;891;-60
2021/12/15 09:57:21;;;;;;;;;;;;;;;;;;5156130;27;701;-61
2021/12/15 10:21:00;;;;;;;;;;;;;;;;;;5155485;27;1913;-61
2021/12/15 10:23:34;;;;;;;;;;;;;;;;;;5155029;27;800;-61
2021/12/15 10:25:59;;;;;;;;;;;;;;;;;;5155442;27;875;-61
2021/12/15 10:28:26;;;;;;;;;;;;;;;;;;5155564;27;935;-61
2021/12/15 10:30:56;;;;;;;;;;;;;;;;;;5155623;27;911;-61
2021/12/15 10:33:22;;;;;;;;;;;;;;;;;;5155205;27;904;-61
2021/12/15 10:35:53;;;;;;;;;;;;;;;;;;5136407;27;1487;-61
2021/12/15 10:38:20;;;;;;;;;;;;;;;;;;5134132;27;2386;-61
2021/12/15 10:40:46;;;;;;;;;;;;;;;;;;5154935;27;2026;-61
2021/12/15 10:43:11;;;;;;;;;;;;;;;;;;5154709;27;832;-61
2021/12/15 10:45:39;;;;;;;;;;;;;;;;;;5154441;27;879;-61
2021/12/15 10:48:10;;;;;;;;;;;;;;;;;;5154400;27;955;-61
2021/12/15 10:50:37;;;;;;;;;;;;;;;;;;5154274;27;800;-61
2021/12/15 10:53:02;;;;;;;;;;;;;;;;;;5153897;27;824;-62
2021/12/15 10:55:29;;;;;;;;;;;;;;;;;;5154320;27;789;-61
2021/12/15 10:57:54;;;;;;;;;;;;;;;;;;5154118;27;830;-61
2021/12/15 11:00:20;;;;;;;;;;;;;;;;;;5153925;27;1905;-61
2021/12/15 11:02:46;;;;;;;;;;;;;;;;;;5154696;27;804;-61
2021/12/15 11:05:16;;;;;;;;;;;;;;;;;;5153974;27;909;-61
2021/12/15 11:07:44;;;;;;;;;;;;;;;;;;5153784;27;851;-62
2021/12/15 11:10:24;;;;;;;;;;;;;;;;;;5154120;27;828;-61
2021/12/15 11:12:51;;;;;;;;;;;;;;;;;;5136507;27;1406;-62
2021/12/15 11:15:22;;;;;;;;;;;;;;;;;;5154002;27;907;-61
2021/12/15 11:17:49;;;;;;;;;;;;;;;;;;5154022;27;895;-61
2021/12/15 11:20:28;;;;;;;;;;;;;;;;;;5153801;27;1959;-61
2021/12/15 11:23:02;;;;;;;;;;;;;;;;;;5153704;27;800;-61
2021/12/15 11:25:46;;;;;;;;;;;;;;;;;;5154206;27;911;-61
2021/12/15 11:28:22;;;;;;;;;;;;;;;;;;5153794;27;834;-61
2021/12/15 11:30:54;;;;;;;;;;;;;;;;;;5134460;27;875;-61
2021/12/15 11:33:30;;;;;;;;;;;;;;;;;;5134427;27;820;-61
2021/12/15 11:35:57;;;;;;;;;;;;;;;;;;5152923;27;938;-61
2021/12/15 11:38:23;;;;;;;;;;;;;;;;;;5152640;27;1280;-61
2021/12/15 11:40:54;;;;;;;;;;;;;;;;;;5152791;27;1961;-61
2021/12/15 11:43:31;;;;;;;;;;;;;;;;;;5153062;27;962;-61
2021/12/15 11:45:57;;;;;;;;;;;;;;;;;;5153216;27;887;-61
2021/12/15 11:48:25;;;;;;;;;;;;;;;;;;5152757;27;801;-61
2021/12/15 11:50:53;;;;;;;;;;;;;;;;;;5152481;27;851;-61
2021/12/15 11:53:39;;;;;;;;;;;;;;;;;;5152379;27;1053;-61
2021/12/15 11:56:22;;;;;;;;;;;;;;;;;;5152797;27;828;-61
2021/12/15 11:58:49;;;;;;;;;;;;;;;;;;5152664;27;773;-61
2021/12/15 12:01:33;;;;;;;;;;;;;;;;;;5152710;27;1967;-61
2021/12/15 12:04:13;;;;;;;;;;;;;;;;;;5152555;27;1010;-61
2021/12/15 12:06:38;;;;;;;;;;;;;;;;;;5152456;27;962;-61
2021/12/15 12:09:03;;;;;;;;;;;;;;;;;;5152433;27;1179;-61
2021/12/15 12:11:29;;;;;;;;;;;;;;;;;;5133788;27;828;-61
2021/12/15 12:13:59;;;;;;;;;;;;;;;;;;5133730;27;1218;-60
2021/12/15 12:16:25;;;;;;;;;;;;;;;;;;5152753;27;868;-61
2021/12/15 12:18:51;;;;;;;;;;;;;;;;;;5152612;27;903;-61
2021/12/15 12:21:16;;;;;;;;;;;;;;;;;;5152629;27;1909;-61
2021/12/15 12:23:45;;;;;;;;;;;;;;;;;;5152217;27;1010;-60
2021/12/15 12:26:11;;;;;;;;;;;;;;;;;;5152441;27;903;-61
2021/12/15 12:28:37;;;;;;;;;;;;;;;;;;5152554;27;820;-60
2021/12/15 12:31:08;;;;;;;;;;;;;;;;;;5153071;27;931;-60
2021/12/15 12:33:34;;;;;;;;;;;;;;;;;;5152786;27;860;-61
2021/12/15 12:36:19;;;;;;;;;;;;;;;;;;5152947;27;1053;-61
2021/12/15 12:38:50;;;;;;;;;;;;;;;;;;5150653;27;1391;-61
2021/12/15 12:41:26;;;;;;;;;;;;;;;;;;5152161;27;1953;-61
2021/12/15 12:43:54;;;;;;;;;;;;;;;;;;5152489;27;1030;-61
2021/12/15 12:46:27;;;;;;;;;;;;;;;;;;5152498;27;810;-61
2021/12/15 12:49:17;;;;;;;;;;;;;;;;;;5155809;27;934;-61
2021/12/15 13:00:21;;;;;;;;;;;;;;;;;;5157191;27;1913;-61
2021/12/15 13:02:50;;;;;;;;;;;;;;;;;;5156594;27;865;-60
2021/12/15 13:05:27;;;;;;;;;;;;;;;;;;5137970;27;892;-61
2021/12/15 13:07:54;;;;;;;;;;;;;;;;;;5156310;27;1992;-60
2021/12/15 13:10:20;;;;;;;;;;;;;;;;;;5156072;27;964;-60
2021/12/15 13:12:47;;;;;;;;;;;;;;;;;;5156721;27;899;-61
2021/12/15 13:15:21;;;;;;;;;;;;;;;;;;5156749;27;812;-61
2021/12/15 13:17:57;;;;;;;;;;;;;;;;;;5156949;27;862;-62
2021/12/15 13:20:24;;;;;;;;;;;;;;;;;;5155788;27;1947;-62
2021/12/15 13:23:06;;;;;;;;;;;;;;;;;;5156734;27;805;-61
2021/12/15 13:31:07;;;;;;;;;;;;;;;;;;5156181;27;698;-62
2021/12/15 13:33:37;;;;;;;;;;;;;;;;;;5156573;27;793;-62
2021/12/15 13:36:08;;;;;;;;;;;;;;;;;;5155987;27;1008;-62
2021/12/15 13:38:37;;;;;;;;;;;;;;;;;;5137402;27;1155;-62
2021/12/15 13:41:10;;;;;;;;;;;;;;;;;;5156052;27;1932;-62
2021/12/15 13:43:43;;;;;;;;;;;;;;;;;;5156382;27;1260;-62
2021/12/15 13:46:22;;;;;;;;;;;;;;;;;;5156309;27;820;-62
2021/12/15 13:49:06;;;;;;;;;;;;;;;;;;5155360;27;828;-61
2021/12/15 13:51:51;;;;;;;;;;;;;;;;;;5155275;27;843;-60
2021/12/15 13:54:21;;;;;;;;;;;;;;;;;;5136729;27;1178;-62
2021/12/15 13:56:50;;;;;;;;;;;;;;;;;;5155574;27;879;-62
2021/12/15 13:59:28;;;;;;;;;;;;;;;;;;5154895;27;1902;-62
2021/12/15 14:02:11;;;;;;;;;;;;;;;;;;5154983;27;822;-62
2021/12/15 14:04:50;;;;;;;;;;;;;;;;;;5155243;27;875;-62
2021/12/15 14:07:28;;;;;;;;;;;;;;;;;;5154880;27;1228;-62
2021/12/15 14:09:54;;;;;;;;;;;;;;;;;;5155229;27;1010;-62
2021/12/15 14:12:38;;;;;;;;;;;;;;;;;;5135596;27;906;-63
2021/12/15 14:15:04;;;;;;;;;;;;;;;;;;5154137;27;1223;-62
2021/12/15 14:17:29;;;;;;;;;;;;;;;;;;5155222;27;931;-62
2021/12/15 14:19:55;;;;;;;;;;;;;;;;;;5155091;27;1967;-62
2021/12/15 14:22:20;;;;;;;;;;;;;;;;;;5155047;27;907;-62
2021/12/15 14:24:46;;;;;;;;;;;;;;;;;;5136005;27;1568;-62
2021/12/15 14:27:12;;;;;;;;;;;;;;;;;;5154404;27;860;-62
2021/12/15 14:29:38;;;;;;;;;;;;;;;;;;5154683;27;978;-61
2021/12/15 14:32:04;;;;;;;;;;;;;;;;;;5154314;27;994;-61
2021/12/15 14:34:32;;;;;;;;;;;;;;;;;;5154058;27;873;-61
2021/12/15 14:36:59;;;;;;;;;;;;;;;;;;5154009;27;807;-62
2021/12/15 14:39:31;;;;;;;;;;;;;;;;;;5153912;27;1910;-61
2021/12/15 14:42:05;;;;;;;;;;;;;;;;;;5153277;27;879;-61
2021/12/15 14:44:32;;;;;;;;;;;;;;;;;;5153986;27;930;-61
2021/12/15 14:46:59;;;;;;;;;;;;;;;;;;5154101;27;1784;-61
2021/12/15 14:49:33;;;;;;;;;;;;;;;;;;5153908;27;852;-62
2021/12/15 14:52:00;;;;;;;;;;;;;;;;;;5153874;27;875;-62
2021/12/15 14:54:27;;;;;;;;;;;;;;;;;;5153822;27;821;-62
2021/12/15 14:57:02;;;;;;;;;;;;;;;;;;5135472;27;1129;-63
2021/12/15 14:59:29;;;;;;;;;;;;;;;;;;5154024;27;1910;-61
2021/12/15 15:01:56;;;;;;;;;;;;;;;;;;5154119;27;800;-62
2021/12/15 15:04:25;;;;;;;;;;;;;;;;;;5154165;27;820;-62
2021/12/15 15:06:52;;;;;;;;;;;;;;;;;;5154301;27;952;-62
2021/12/15 15:09:18;;;;;;;;;;;;;;;;;;5154086;27;769;-62
2021/12/15 15:11:49;;;;;;;;;;;;;;;;;;5153293;27;833;-62
2021/12/15 15:14:15;;;;;;;;;;;;;;;;;;5154121;27;1010;-62
2021/12/15 15:16:40;;;;;;;;;;;;;;;;;;5154247;27;857;-62
2021/12/15 15:19:15;;;;;;;;;;;;;;;;;;5153631;27;824;-62
2021/12/15 15:21:41;;;;;;;;;;;;;;;;;;5135797;27;1969;-62
2021/12/15 15:24:06;;;;;;;;;;;;;;;;;;5153650;27;1090;-62
2021/12/15 15:26:31;;;;;;;;;;;;;;;;;;5153534;27;855;-62
2021/12/15 15:28:57;;;;;;;;;;;;;;;;;;5134921;27;963;-62
2021/12/15 15:31:30;;;;;;;;;;;;;;;;;;5153625;27;1014;-61
2021/12/15 15:33:58;;;;;;;;;;;;;;;;;;5153083;27;879;-61
2021/12/15 15:36:27;;;;;;;;;;;;;;;;;;5134467;27;1430;-61
2021/12/15 15:38:53;;;;;;;;;;;;;;;;;;5152825;27;1279;-61
2021/12/15 15:41:22;;;;;;;;;;;;;;;;;;5153068;27;1997;-62
2021/12/15 15:43:53;;;;;;;;;;;;;;;;;;5153178;27;951;-61
2021/12/15 15:46:23;;;;;;;;;;;;;;;;;;5152717;27;852;-61
2021/12/15 15:48:49;;;;;;;;;;;;;;;;;;5152914;27;938;-61
2021/12/15 15:51:22;;;;;;;;;;;;;;;;;;5118972;27;1268;-61
2021/12/15 15:53:51;;;;;;;;;;;;;;;;;;5132195;27;887;-61
2021/12/15 15:56:17;;;;;;;;;;;;;;;;;;5132586;27;816;-62
2021/12/15 15:59:04;;;;;;;;;;;;;;;;;;5131861;27;951;-61
2021/12/15 16:01:29;;;;;;;;;;;;;;;;;;5131696;27;1961;-61
2021/12/15 16:03:56;;;;;;;;;;;;;;;;;;5113597;27;903;-61
2021/12/15 16:06:22;;;;;;;;;;;;;;;;;;5132036;27;919;-62
2021/12/15 16:08:49;;;;;;;;;;;;;;;;;;5132371;27;801;-61
2021/12/15 16:11:16;;;;;;;;;;;;;;;;;;5131925;27;950;-61
2021/12/15 16:13:43;;;;;;;;;;;;;;;;;;5131761;27;931;-61
2021/12/15 16:16:10;;;;;;;;;;;;;;;;;;5132286;27;951;-61
2021/12/15 16:18:41;;;;;;;;;;;;;;;;;;5131826;27;884;-61
2021/12/15 16:23:33;;;;;;;;;;;;;;;;;;5132290;27;906;-62
2021/12/15 16:26:00;;;;;;;;;;;;;;;;;;5132167;27;919;-62
2021/12/15 16:28:29;;;;;;;;;;;;;;;;;;5132211;27;864;-61
2021/12/15 16:30:56;;;;;;;;;;;;;;;;;;5132151;27;907;-61
2021/12/15 16:33:26;;;;;;;;;;;;;;;;;;5132508;27;820;-61
2021/12/15 16:35:54;;;;;;;;;;;;;;;;;;5132768;28;949;-61
2021/12/15 16:38:20;;;;;;;;;;;;;;;;;;5132781;28;1052;-61
2021/12/15 16:40:54;;;;;;;;;;;;;;;;;;5135253;27;1909;-61
2021/12/15 16:43:20;;;;;;;;;;;;;;;;;;5136123;27;2012;-61
2021/12/15 16:45:47;;;;;;;;;;;;;;;;;;5139005;27;1717;-61
2021/12/15 16:48:24;;;;;;;;;;;;;;;;;;5122794;27;1217;-62
2021/12/15 16:50:54;;;;;;;;;;;;;;;;;;5138878;27;1120;-62
2021/12/15 16:53:21;;;;;;;;;;;;;;;;;;5140140;27;1111;-62
2021/12/15 16:55:46;;;;;;;;;;;;;;;;;;5136263;27;1214;-61
2021/12/15 16:58:11;;;;;;;;;;;;;;;;;;5139376;27;1240;-61
2021/12/15 17:00:38;;;;;;;;;;;;;;;;;;5134332;27;1967;-62
2021/12/15 17:03:06;;;;;;;;;;;;;;;;;;5131036;27;1166;-62
2021/12/15 17:05:39;;;;;;;;;;;;;;;;;;5132122;28;859;-61
2021/12/15 17:08:15;;;;;;;;;;;;;;;;;;5131754;28;852;-61
2021/12/15 17:10:45;;;;;;;;;;;;;;;;;;5132707;28;1081;-62
2021/12/15 17:13:13;;;;;;;;;;;;;;;;;;5133239;28;926;-62
2021/12/15 17:18:25;;;;;;;;;;;;;;;;;;5132610;27;697;-62
2021/12/15 17:21:02;;;;;;;;;;;;;;;;;;5132215;28;1955;-62
2021/12/15 17:23:29;;;;;;;;;;;;;;;;;;5113138;28;1355;-62
2021/12/15 17:26:00;;;;;;;;;;;;;;;;;;5131493;28;913;-60
2021/12/15 17:28:25;;;;;;;;;;;;;;;;;;5132130;28;939;-63
2021/12/15 17:30:52;;;;;;;;;;;;;;;;;;5132032;28;668;-60
2021/12/15 17:33:26;;;;;;;;;;;;;;;;;;5131880;27;1349;-63
2021/12/15 17:35:52;;;;;;;;;;;;;;;;;;5136095;27;952;-60
2021/12/15 17:38:26;;;;;;;;;;;;;;;;;;5135751;27;985;-60
2021/12/15 17:40:53;;;;;;;;;;;;;;;;;;5135010;27;1961;-60
2021/12/15 17:43:47;;;;;;;;;;;;;;;;;;5134945;27;856;-63
2021/12/15 17:46:14;;;;;;;;;;;;;;;;;;5120972;27;1213;-63
2021/12/15 17:48:40;;;;;;;;;;;;;;;;;;5135634;27;982;-60
2021/12/15 17:51:05;;;;;;;;;;;;;;;;;;5135052;27;884;-60
2021/12/15 17:53:31;;;;;;;;;;;;;;;;;;5135040;27;903;-60
2021/12/15 17:55:57;;;;;;;;;;;;;;;;;;5135294;27;867;-63
2021/12/15 17:58:26;;;;;;;;;;;;;;;;;;5134722;27;693;-60
2021/12/15 18:01:00;;;;;;;;;;;;;;;;;;5134406;27;1911;-63
2021/12/15 18:03:28;;;;;;;;;;;;;;;;;;5132409;27;1213;-61
2021/12/15 18:05:56;;;;;;;;;;;;;;;;;;5130809;27;1119;-61
2021/12/15 18:08:22;;;;;;;;;;;;;;;;;;5132899;27;1150;-61
2021/12/15 18:10:50;;;;;;;;;;;;;;;;;;5116296;27;1147;-62
2021/12/15 18:13:18;;;;;;;;;;;;;;;;;;5135177;27;812;-62
2021/12/15 18:15:44;;;;;;;;;;;;;;;;;;5136160;27;828;-62
2021/12/15 18:18:10;;;;;;;;;;;;;;;;;;5135969;27;954;-62
2021/12/15 18:20:35;;;;;;;;;;;;;;;;;;5135570;27;1894;-61
2021/12/15 18:23:03;;;;;;;;;;;;;;;;;;5135167;27;926;-61
2021/12/15 18:25:28;;;;;;;;;;;;;;;;;;5135123;27;911;-61
2021/12/15 18:27:59;;;;;;;;;;;;;;;;;;5135207;27;934;-62
2021/12/15 18:30:25;;;;;;;;;;;;;;;;;;5135217;27;910;-62
2021/12/15 18:32:51;;;;;;;;;;;;;;;;;;5135567;27;887;-62
2021/12/15 18:35:17;;;;;;;;;;;;;;;;;;5134535;27;1030;-62
2021/12/15 18:37:42;;;;;;;;;;;;;;;;;;5117171;27;820;-62
2021/12/15 18:40:08;;;;;;;;;;;;;;;;;;5135165;27;2053;-61
2021/12/15 18:42:34;;;;;;;;;;;;;;;;;;5116273;27;1055;-61
2021/12/15 18:45:00;;;;;;;;;;;;;;;;;;5135252;27;863;-61
2021/12/15 18:47:28;;;;;;;;;;;;;;;;;;5134566;27;1886;-62
2021/12/15 18:49:56;;;;;;;;;;;;;;;;;;5134724;27;935;-61
2021/12/15 18:52:22;;;;;;;;;;;;;;;;;;5134310;27;918;-62
2021/12/15 18:54:47;;;;;;;;;;;;;;;;;;5134535;27;990;-62